Decoded Metar for KLBL (LIBERAL in KS, USA) (IATA:LBL) | Meteo·Mobile Aviation Weather
aviador You're here:

KLBL Decoded Metar

LIBERAL in KS, USA
Report Time2019-06-27 07:56:00
UTC Time2019-06-27 08:44:39
Flight Rules vfr VFR
Wind190° at 13 kt
W.Decomp.*RWY 17: 12.8 kt HW 2.3 kt RCW
RWY 22: 10.0 kt HW 8.4 kt LCW
Visibility9999 m
Phenomena:N/A
Clouds:N/A
Expected CloudBase > 1,600 ft AGL from Temp-Dew spread
CeilingNone
Temp22°C (ISA +13)
Dew Point18°C (78% RH)
AAT20.1°C
QNH1018 hPa
Density Alt4,478 ft
Elevation2,884 ft
Report Wrong Elevation
Raw Report
KLBL 270756Z AUTO 19013KT 10SM CLR 22/18 A3006 RMK AO2 SLP144
T02220178=

Extra information for KLBL:More info

Metar Taf Metar & Taf Last 4 Metars F.Rules Stats Wind Profile Meteogram Temp Stats Airport Information Weather charts Add Link Nearby VenuesMetar ALERT Operation Metar Decoded Social comments

AIRNAV info for KLBL